createdAt,value
2023-01-11T00:00:56.838Z,100542.50
2023-01-11T00:03:24.277Z,100541.09
2023-01-11T00:05:51.755Z,100536.47
2023-01-11T00:08:19.275Z,100536.25
2023-01-11T00:10:46.715Z,100530.19
2023-01-11T00:13:14.784Z,100533.13
2023-01-11T00:15:43.713Z,100520.13
2023-01-11T00:18:12.078Z,100526.41
2023-01-11T00:20:39.861Z,100512.34
2023-01-11T00:23:07.375Z,100505.19
2023-01-11T00:25:34.882Z,100493.13
2023-01-11T00:28:02.262Z,100487.94
2023-01-11T00:30:29.721Z,100480.72
2023-01-11T00:32:59.407Z,100472.03
2023-01-11T00:35:28.978Z,100457.59
2023-01-11T00:37:56.379Z,100459.94
2023-01-11T00:40:24.415Z,100454.47
2023-01-11T00:43:09.113Z,100443.06
2023-01-11T00:45:54.270Z,100440.34
2023-01-11T00:48:22.996Z,100447.34
2023-01-11T00:50:54.381Z,100444.78
2023-01-11T00:53:22.455Z,100453.31
2023-01-11T00:55:49.755Z,100450.59
2023-01-11T00:58:17.102Z,100445.28
2023-01-11T01:00:44.520Z,100443.16
2023-01-11T01:03:11.913Z,100440.38
2023-01-11T01:05:41.757Z,100426.97
2023-01-11T01:08:09.213Z,100418.63
2023-01-11T01:10:36.629Z,100408.28
2023-01-11T01:13:21.554Z,100407.91
2023-01-11T01:15:49.076Z,100404.25
2023-01-11T01:18:16.491Z,100412.06
2023-01-11T01:20:45.157Z,100398.69
2023-01-11T01:23:12.530Z,100397.81
2023-01-11T01:25:39.921Z,100402.00
2023-01-11T01:28:07.307Z,100397.59
2023-01-11T01:30:34.681Z,100392.19
2023-01-11T01:33:02.029Z,100386.59
2023-01-11T01:35:29.403Z,100385.72
2023-01-11T01:37:58.072Z,100379.31
2023-01-11T01:40:25.456Z,100373.91
2023-01-11T01:42:55.010Z,100373.91
2023-01-11T01:45:24.698Z,100372.34
2023-01-11T01:47:57.388Z,100371.25
2023-01-11T01:50:28.888Z,100372.16
2023-01-11T01:53:02.962Z,100379.03
2023-01-11T01:55:34.545Z,100385.47
2023-01-11T01:58:05.503Z,100377.66
2023-01-11T02:00:33.170Z,100369.00
2023-01-11T02:03:02.554Z,100360.19
2023-01-11T02:05:30.101Z,100365.44
2023-01-11T02:08:01.047Z,100349.34
2023-01-11T02:10:29.052Z,100349.41
2023-01-11T02:12:59.172Z,100352.97
2023-01-11T02:15:27.361Z,100341.66
2023-01-11T02:17:54.768Z,100337.41
2023-01-11T02:20:33.629Z,100336.22
2023-01-11T02:23:36.413Z,100327.47
2023-01-11T02:26:31.835Z,100332.56
2023-01-11T02:29:09.769Z,100332.09
2023-01-11T02:31:42.205Z,100329.50
2023-01-11T02:34:21.270Z,100321.19
2023-01-11T02:37:03.653Z,100318.47
2023-01-11T02:39:38.227Z,100319.06
2023-01-11T02:42:30.234Z,100315.34
2023-01-11T02:45:09.175Z,100310.88
2023-01-11T02:47:47.329Z,100303.56
2023-01-11T02:50:23.100Z,100294.94
2023-01-11T02:52:58.639Z,100295.38
2023-01-11T02:55:29.497Z,100287.34
2023-01-11T02:58:01.525Z,100294.31
2023-01-11T03:00:30.604Z,100285.56
2023-01-11T03:03:14.439Z,100283.97
2023-01-11T03:05:47.045Z,100284.75
2023-01-11T03:08:31.247Z,100281.41
2023-01-11T03:11:05.830Z,100287.41
2023-01-11T03:13:47.556Z,100282.88
2023-01-11T03:16:23.796Z,100271.13
2023-01-11T03:18:55.363Z,100275.88
2023-01-11T03:21:33.319Z,100276.50
2023-01-11T03:24:06.053Z,100265.09
2023-01-11T03:26:42.812Z,100245.53
2023-01-11T03:29:20.324Z,100244.25
2023-01-11T03:31:55.652Z,100236.16
2023-01-11T03:34:31.767Z,100232.97
2023-01-11T03:37:04.643Z,100231.91
2023-01-11T03:39:38.760Z,100227.16
2023-01-11T03:42:08.461Z,100220.78
2023-01-11T03:44:43.405Z,100227.97
2023-01-11T03:47:15.701Z,100221.56
2023-01-11T03:49:48.497Z,100223.56
2023-01-11T03:52:19.623Z,100216.53
2023-01-11T03:54:48.133Z,100221.00
2023-01-11T03:57:19.498Z,100210.19
2023-01-11T03:59:47.398Z,100215.94
2023-01-11T04:02:20.627Z,100209.91
2023-01-11T04:04:48.357Z,100212.47
2023-01-11T04:07:16.815Z,100205.16
2023-01-11T04:09:44.169Z,100193.81
2023-01-11T04:12:11.887Z,100205.22
2023-01-11T04:14:39.474Z,100196.31
2023-01-11T04:17:06.899Z,100198.09
2023-01-11T04:19:35.583Z,100194.97
2023-01-11T04:22:02.921Z,100194.75
2023-01-11T04:24:30.276Z,100184.97
2023-01-11T04:26:57.615Z,100181.38
2023-01-11T04:29:24.997Z,100173.38
2023-01-11T04:31:52.391Z,100177.47
2023-01-11T04:34:19.807Z,100180.91
2023-01-11T04:36:48.486Z,100185.38
2023-01-11T04:39:15.908Z,100191.31
2023-01-11T04:42:01.175Z,100183.28
2023-01-11T04:44:28.570Z,100180.00
2023-01-11T04:46:55.911Z,100174.13
2023-01-11T04:49:23.277Z,100161.72
2023-01-11T04:51:52.249Z,100163.13
2023-01-11T04:54:19.781Z,100157.72
2023-01-11T04:56:47.150Z,100151.53
2023-01-11T04:59:14.873Z,100148.88
2023-01-11T05:01:42.281Z,100139.13
2023-01-11T05:04:11.395Z,100144.81
2023-01-11T05:06:40.091Z,100136.91
2023-01-11T05:09:14.113Z,100144.09
2023-01-11T05:11:41.538Z,100140.19
2023-01-11T05:14:09.230Z,100150.75
2023-01-11T05:16:36.969Z,100148.34
2023-01-11T05:19:06.174Z,100145.38
2023-01-11T05:21:35.384Z,100149.66
2023-01-11T05:24:05.217Z,100138.06
2023-01-11T05:26:35.685Z,100131.97
2023-01-11T05:29:05.033Z,100136.97
2023-01-11T05:31:33.498Z,100144.97
2023-01-11T05:34:01.223Z,100138.00
2023-01-11T05:36:29.527Z,100140.19
2023-01-11T05:38:57.732Z,100134.88
2023-01-11T05:41:26.863Z,100142.00
2023-01-11T05:44:13.805Z,100135.03
2023-01-11T05:46:43.179Z,100116.47
2023-01-11T05:49:12.029Z,100122.56
2023-01-11T05:51:39.852Z,100127.97
2023-01-11T05:54:10.185Z,100122.56
2023-01-11T05:56:37.666Z,100132.94
2023-01-11T05:59:07.064Z,100121.78
2023-01-11T06:01:34.664Z,100128.94
2023-01-11T06:04:02.077Z,100116.66
2023-01-11T06:06:29.745Z,100115.53
2023-01-11T06:08:57.204Z,100117.91
2023-01-11T06:11:24.581Z,100117.03
2023-01-11T06:13:52.007Z,100122.66
2023-01-11T06:16:22.145Z,100114.78
2023-01-11T06:18:51.551Z,100119.19
2023-01-11T06:21:20.186Z,100110.06
2023-01-11T06:23:51.256Z,100108.41
2023-01-11T06:26:21.069Z,100103.78
2023-01-11T06:28:48.853Z,100114.94
2023-01-11T06:31:17.818Z,100112.19
2023-01-11T06:33:47.424Z,100111.75
2023-01-11T06:36:15.994Z,100117.91
2023-01-11T06:38:44.220Z,100118.19
2023-01-11T06:41:12.535Z,100108.09
2023-01-11T06:43:41.803Z,100102.72
2023-01-11T06:46:15.546Z,100097.78
2023-01-11T06:48:43.351Z,100101.78
2023-01-11T06:51:13.367Z,100100.13
2023-01-11T06:53:42.053Z,100089.09
2023-01-11T06:56:13.024Z,100085.94
2023-01-11T06:58:40.446Z,100095.88
2023-01-11T07:01:08.114Z,100092.28
2023-01-11T07:03:35.706Z,100092.97
2023-01-11T07:06:04.364Z,100104.56
2023-01-11T07:08:33.120Z,100099.06
2023-01-11T07:11:00.562Z,100097.72
2023-01-11T07:13:27.990Z,100108.19
2023-01-11T07:15:58.140Z,100110.19
2023-01-11T07:18:25.623Z,100113.28
2023-01-11T07:20:53.075Z,100118.59
2023-01-11T07:23:20.462Z,100122.03
2023-01-11T07:25:50.326Z,100120.16
2023-01-11T07:28:17.778Z,100116.13
2023-01-11T07:30:57.280Z,100125.47
2023-01-11T07:33:25.486Z,100111.06
2023-01-11T07:35:52.965Z,100107.44
2023-01-11T07:38:20.413Z,100103.41
2023-01-11T07:40:47.835Z,100099.47
2023-01-11T07:43:15.715Z,100104.97
2023-01-11T07:45:46.649Z,100106.94
2023-01-11T07:48:14.899Z,100102.22
2023-01-11T07:50:45.165Z,100107.63
2023-01-11T07:53:13.288Z,100099.81
2023-01-11T07:55:42.480Z,100092.78
2023-01-11T07:58:12.236Z,100093.41
2023-01-11T08:00:41.650Z,100094.41
2023-01-11T08:03:09.323Z,100102.84
2023-01-11T08:05:36.862Z,100108.69
2023-01-11T08:08:04.351Z,100099.06
2023-01-11T08:10:32.096Z,100090.91
2023-01-11T08:13:28.965Z,100096.41
2023-01-11T08:15:58.248Z,100097.59
2023-01-11T08:18:25.770Z,100102.25
2023-01-11T08:20:53.670Z,100098.81
2023-01-11T08:23:21.074Z,100102.31
2023-01-11T08:25:48.479Z,100102.63
2023-01-11T08:28:15.894Z,100112.78
2023-01-11T08:30:44.302Z,100104.03
2023-01-11T08:33:13.033Z,100102.09
2023-01-11T08:35:41.061Z,100105.56
2023-01-11T08:38:08.700Z,100096.19
2023-01-11T08:40:36.670Z,100091.13
2023-01-11T08:43:03.984Z,100098.78
2023-01-11T08:45:31.412Z,100100.41
2023-01-11T08:48:00.397Z,100098.78
2023-01-11T08:50:29.197Z,100092.31
2023-01-11T08:52:56.580Z,100088.88
2023-01-11T08:55:24.085Z,100078.88
2023-01-11T08:57:51.471Z,100088.44
2023-01-11T09:00:20.838Z,100079.78
2023-01-11T09:02:48.244Z,100075.94
2023-01-11T09:05:18.085Z,100077.50
2023-01-11T09:07:47.337Z,100084.88
2023-01-11T09:10:14.724Z,100070.00
2023-01-11T09:12:42.164Z,100064.94
2023-01-11T09:15:10.439Z,100072.16
2023-01-11T09:17:37.819Z,100064.56
2023-01-11T09:20:06.169Z,100065.72
2023-01-11T09:22:33.783Z,100058.88
2023-01-11T09:25:02.584Z,100063.94
2023-01-11T09:27:29.988Z,100068.41
2023-01-11T09:29:57.425Z,100069.38
2023-01-11T09:32:24.797Z,100069.38
2023-01-11T09:34:57.170Z,100058.56
2023-01-11T09:37:24.659Z,100053.47
2023-01-11T09:39:52.574Z,100057.94
2023-01-11T09:42:32.226Z,100051.13
2023-01-11T09:45:07.069Z,100055.31
2023-01-11T09:47:40.797Z,100055.88
2023-01-11T09:50:14.358Z,100056.44
2023-01-11T09:52:46.241Z,100052.81
2023-01-11T09:55:20.060Z,100054.75
2023-01-11T09:57:59.136Z,100048.25
2023-01-11T10:00:33.963Z,100043.13
2023-01-11T10:03:24.119Z,100039.69
2023-01-11T10:05:59.922Z,100029.97
2023-01-11T10:18:31.447Z,100018.25
2023-01-11T10:18:40.604Z,100026.91
2023-01-11T10:20:34.929Z,100019.94
2023-01-11T10:23:08.290Z,100010.03
2023-01-11T10:25:44.104Z,100010.78
2023-01-11T10:28:23.069Z,100012.22
2023-01-11T10:31:08.082Z,100004.97
2023-01-11T10:34:05.823Z,100008.13
2023-01-11T10:36:51.659Z,100005.44
2023-01-11T10:39:46.421Z,100000.38
2023-01-11T10:42:21.561Z,100002.19
2023-01-11T10:44:57.899Z,99997.31
2023-01-11T10:47:32.356Z,99998.84
2023-01-11T10:50:05.952Z,99997.19
2023-01-11T10:52:41.320Z,99982.81
2023-01-11T10:55:13.796Z,99993.69
2023-01-11T10:58:02.090Z,99990.66
2023-01-11T11:00:37.090Z,99988.34
2023-01-11T11:03:21.257Z,99987.19
2023-01-11T11:05:54.046Z,99987.16
2023-01-11T11:08:28.811Z,99982.78
2023-01-11T11:11:02.103Z,99978.53
2023-01-11T11:13:44.984Z,99984.47
2023-01-11T11:16:25.721Z,99973.03
2023-01-11T11:18:58.260Z,99970.28
2023-01-11T11:21:29.250Z,99967.59
2023-01-11T11:24:01.116Z,99969.13
2023-01-11T11:26:37.199Z,99966.78
2023-01-11T11:29:07.120Z,99959.81
2023-01-11T11:31:37.204Z,99967.38
2023-01-11T11:34:08.487Z,99965.78
2023-01-11T11:36:43.563Z,99960.56
2023-01-11T11:39:18.785Z,99949.13
2023-01-11T11:41:49.250Z,99950.94
2023-01-11T11:44:20.346Z,99948.50
2023-01-11T11:47:06.548Z,99948.28
2023-01-11T11:49:36.644Z,99948.94
2023-01-11T11:52:06.109Z,99939.19
2023-01-11T11:54:36.676Z,99942.94
2023-01-11T11:57:15.381Z,99935.44
2023-01-11T11:59:47.236Z,99921.44
2023-01-11T12:02:25.235Z,99924.34
2023-01-11T12:04:55.849Z,99916.72
2023-01-11T12:07:26.588Z,99914.81
2023-01-11T12:09:59.865Z,99901.00
2023-01-11T12:12:29.548Z,99915.53
2023-01-11T12:15:18.559Z,99902.16
2023-01-11T12:17:46.378Z,99910.38
2023-01-11T12:20:42.330Z,99907.50
2023-01-11T12:23:14.549Z,99899.53
2023-01-11T12:25:52.854Z,99892.34
2023-01-11T12:28:32.113Z,99889.44
2023-01-11T12:31:08.062Z,99893.53
2023-01-11T12:33:45.509Z,99897.38
2023-01-11T12:36:23.989Z,99884.41
2023-01-11T12:39:05.117Z,99886.28
2023-01-11T12:41:50.012Z,99875.34
2023-01-11T12:44:31.193Z,99874.19
2023-01-11T12:47:16.760Z,99876.97
2023-01-11T12:49:51.097Z,99866.78
2023-01-11T12:52:42.024Z,99872.47
2023-01-11T12:55:29.147Z,99863.38
2023-01-11T12:58:02.289Z,99859.75
2023-01-11T13:00:52.211Z,99856.28
2023-01-11T13:03:41.993Z,99857.81
2023-01-11T13:06:15.038Z,99851.06
2023-01-11T13:08:56.241Z,99847.09
2023-01-11T13:11:38.355Z,99851.59
2023-01-11T13:14:23.923Z,99858.03
2023-01-11T13:17:04.402Z,99848.41
2023-01-11T13:19:42.484Z,99848.94
2023-01-11T13:22:18.229Z,99834.91
2023-01-11T13:24:50.689Z,99848.19
2023-01-11T13:27:22.378Z,99856.28
2023-01-11T13:29:52.980Z,99850.41
2023-01-11T13:32:23.787Z,99848.59
2023-01-11T13:34:55.070Z,99847.75
2023-01-11T13:37:30.475Z,99854.59
2023-01-11T13:40:07.877Z,99862.50
2023-01-11T13:42:39.193Z,99866.34
2023-01-11T13:45:16.455Z,99865.72
2023-01-11T13:47:48.078Z,99861.88
2023-01-11T13:50:21.444Z,99861.88
2023-01-11T13:53:03.368Z,99861.75
2023-01-11T13:55:38.507Z,99865.41
2023-01-11T13:58:14.754Z,99866.16
2023-01-11T14:00:46.123Z,99857.56
2023-01-11T14:03:26.151Z,99860.34
2023-01-11T14:06:05.730Z,99862.28
2023-01-11T14:08:52.866Z,99865.84
2023-01-11T14:11:31.588Z,99858.56
2023-01-11T14:14:37.291Z,99873.22
2023-01-11T14:17:28.134Z,99864.63
2023-01-11T14:20:04.854Z,99874.94
2023-01-11T14:22:39.427Z,99873.00
2023-01-11T14:25:14.977Z,99882.41
2023-01-11T14:28:04.020Z,99876.75
2023-01-11T14:30:47.684Z,99872.47
2023-01-11T14:33:46.149Z,99878.91
2023-01-11T14:36:43.332Z,99867.75
2023-01-11T14:39:47.946Z,99866.25
2023-01-11T14:42:54.653Z,99866.34
2023-01-11T14:45:48.116Z,99868.84
2023-01-11T14:48:25.104Z,99862.22
2023-01-11T14:51:15.235Z,99865.91
2023-01-11T14:53:45.840Z,99863.25
2023-01-11T14:56:36.701Z,99872.47
2023-01-11T14:59:05.809Z,99858.88
2023-01-11T15:04:26.835Z,99869.97
2023-01-11T15:06:55.468Z,99877.38
2023-01-11T15:09:46.074Z,99885.09
2023-01-11T15:12:15.571Z,99886.78
2023-01-11T15:14:48.092Z,99877.06
2023-01-11T15:17:36.770Z,99881.22
2023-01-11T15:20:11.229Z,99894.47
2023-01-11T15:22:39.083Z,99888.94
2023-01-11T15:25:19.836Z,99885.34
2023-01-11T15:27:47.706Z,99894.34
2023-01-11T15:30:36.944Z,99897.75
2023-01-11T15:33:29.064Z,99897.97
2023-01-11T15:36:06.747Z,99900.78
2023-01-11T15:38:38.515Z,99894.81
2023-01-11T15:41:29.845Z,99892.44
2023-01-11T15:44:14.871Z,99902.00
2023-01-11T15:47:21.480Z,99904.78
2023-01-11T15:50:19.740Z,99908.31
2023-01-11T15:53:18.415Z,99909.38
2023-01-11T15:56:11.168Z,99908.88
2023-01-11T15:59:13.274Z,99906.19
2023-01-11T16:01:55.291Z,99912.78
2023-01-11T16:04:29.248Z,99905.63
2023-01-11T16:06:59.694Z,99909.50
2023-01-11T16:09:48.200Z,99913.78
2023-01-11T16:12:33.491Z,99913.53
2023-01-11T16:15:22.983Z,99910.50
2023-01-11T16:17:51.349Z,99920.78
2023-01-11T16:20:26.454Z,99922.22
2023-01-11T16:22:56.731Z,99923.25
2023-01-11T16:25:30.003Z,99927.75
2023-01-11T16:27:59.165Z,99927.31
2023-01-11T16:30:28.130Z,99927.84
2023-01-11T16:33:20.276Z,99925.53
2023-01-11T16:35:49.249Z,99935.84
2023-01-11T16:38:20.481Z,99930.81
2023-01-11T16:40:53.529Z,99941.84
2023-01-11T16:43:25.828Z,99944.56
2023-01-11T16:45:55.048Z,99942.72
2023-01-11T16:48:23.691Z,99948.50
2023-01-11T16:51:00.708Z,99951.22
2023-01-11T16:53:30.056Z,99956.03
2023-01-11T16:56:05.335Z,99952.00
2023-01-11T16:58:34.929Z,99952.63
2023-01-11T17:01:04.962Z,99954.66
2023-01-11T17:03:34.181Z,99965.81
2023-01-11T17:06:15.090Z,99968.28
2023-01-11T17:08:43.781Z,99959.16
2023-01-11T17:11:22.214Z,99961.50
2023-01-11T17:14:17.798Z,99964.19
2023-01-11T17:16:47.645Z,99958.81
2023-01-11T17:19:17.094Z,99973.19
2023-01-11T17:21:49.247Z,99981.75
2023-01-11T17:24:18.769Z,99978.00
2023-01-11T17:26:50.173Z,99981.53
2023-01-11T17:29:24.285Z,99986.69
2023-01-11T17:31:51.809Z,99984.19
2023-01-11T17:34:20.952Z,99990.00
2023-01-11T17:36:48.785Z,99994.81
2023-01-11T17:39:23.663Z,99995.66
2023-01-11T17:42:10.537Z,99999.75
2023-01-11T17:44:55.764Z,100008.84
2023-01-11T17:47:23.662Z,100007.03
2023-01-11T17:49:52.494Z,100007.34
2023-01-11T17:52:23.263Z,100013.03
2023-01-11T17:55:01.367Z,100011.72
2023-01-11T17:57:30.110Z,100019.00
2023-01-11T18:00:17.292Z,100022.88
2023-01-11T18:02:44.835Z,100027.59
2023-01-11T18:05:16.855Z,100036.81
2023-01-11T18:07:47.926Z,100033.81
2023-01-11T18:10:19.998Z,100028.66
2023-01-11T18:12:49.586Z,100023.75
2023-01-11T18:15:25.433Z,100030.91
2023-01-11T18:17:56.771Z,100030.56
2023-01-11T18:20:36.255Z,100032.06
2023-01-11T18:23:15.885Z,100028.78
2023-01-11T18:25:45.970Z,100022.22
2023-01-11T18:28:38.934Z,100030.59
2023-01-11T18:31:06.588Z,100031.34
2023-01-11T18:33:34.995Z,100042.69
2023-01-11T18:36:04.477Z,100045.34
2023-01-11T18:38:33.563Z,100061.75
2023-01-11T18:41:24.791Z,100061.84
2023-01-11T18:43:54.449Z,100052.88
2023-01-11T18:46:21.900Z,100050.59
2023-01-11T18:48:49.321Z,100050.53
2023-01-11T18:51:20.120Z,100053.91
2023-01-11T18:53:47.511Z,100071.94
2023-01-11T18:56:16.289Z,100057.47
2023-01-11T18:58:43.719Z,100058.63
2023-01-11T19:01:12.726Z,100054.13
2023-01-11T19:03:43.743Z,100065.09
2023-01-11T19:06:13.995Z,100065.28
2023-01-11T19:08:41.403Z,100075.16
2023-01-11T19:11:08.801Z,100070.31
2023-01-11T19:13:36.181Z,100069.78
2023-01-11T19:16:03.660Z,100072.47
2023-01-11T19:18:35.245Z,100074.06
2023-01-11T19:21:03.297Z,100072.78
2023-01-11T19:23:30.727Z,100090.13
2023-01-11T19:25:58.447Z,100089.38
2023-01-11T19:28:25.839Z,100102.88
2023-01-11T19:30:53.258Z,100112.00
2023-01-11T19:33:20.703Z,100103.63
2023-01-11T19:35:49.783Z,100112.31
2023-01-11T19:38:19.499Z,100116.06
2023-01-11T19:40:50.284Z,100118.19
2023-01-11T19:43:18.146Z,100125.69
2023-01-11T19:45:45.555Z,100123.34
2023-01-11T19:48:13.054Z,100114.97
2023-01-11T19:50:40.398Z,100117.34
2023-01-11T19:53:09.116Z,100132.22
2023-01-11T19:55:36.474Z,100127.28
2023-01-11T19:58:04.573Z,100135.53
2023-01-11T20:00:32.770Z,100145.28
2023-01-11T20:03:05.698Z,100159.75
2023-01-11T20:05:33.611Z,100152.56
2023-01-11T20:11:42.958Z,100164.22
2023-01-11T20:14:10.384Z,100167.03
2023-01-11T20:16:37.853Z,100171.59
2023-01-11T20:19:05.519Z,100176.66
2023-01-11T20:21:34.172Z,100188.59
2023-01-11T20:24:02.354Z,100181.31
2023-01-11T20:26:33.677Z,100187.28
2023-01-11T20:29:02.895Z,100187.75
2023-01-11T20:31:32.957Z,100187.06
2023-01-11T20:36:53.299Z,100197.22
2023-01-11T20:39:20.714Z,100196.03
2023-01-11T20:41:48.611Z,100196.75
2023-01-11T20:44:19.633Z,100197.31
2023-01-11T20:46:48.465Z,100198.72
2023-01-11T20:49:16.573Z,100203.81
2023-01-11T20:51:44.251Z,100214.34
2023-01-11T20:54:12.208Z,100210.91
2023-01-11T20:56:40.709Z,100203.94
2023-01-11T21:01:38.673Z,100201.66
2023-01-11T21:04:08.055Z,100202.28
2023-01-11T21:06:37.258Z,100213.19
2023-01-11T21:09:06.076Z,100207.44
2023-01-11T21:11:33.946Z,100215.31
2023-01-11T21:14:04.072Z,100219.44
2023-01-11T21:16:32.447Z,100221.34
2023-01-11T21:19:03.172Z,100223.34
2023-01-11T21:21:32.469Z,100227.25
2023-01-11T21:24:02.539Z,100224.06
2023-01-11T21:26:31.545Z,100226.06
2023-01-11T21:29:00.586Z,100224.16
2023-01-11T21:31:29.168Z,100225.50
2023-01-11T21:33:56.910Z,100220.63
2023-01-11T21:36:27.639Z,100217.94
2023-01-11T21:38:56.471Z,100228.09
2023-01-11T21:41:39.781Z,100230.94
2023-01-11T21:44:07.291Z,100234.34
2023-01-11T21:46:34.930Z,100241.03
2023-01-11T21:49:02.404Z,100237.50
2023-01-11T21:51:31.168Z,100237.13
2023-01-11T21:53:59.703Z,100243.53
2023-01-11T21:56:27.349Z,100247.13
2023-01-11T21:58:54.718Z,100245.63
2023-01-11T22:01:22.264Z,100253.94
2023-01-11T22:03:50.203Z,100248.88
2023-01-11T22:06:18.044Z,100258.63
2023-01-11T22:08:46.855Z,100254.44
2023-01-11T22:11:16.532Z,100243.16
2023-01-11T22:13:44.230Z,100248.78
2023-01-11T22:16:14.564Z,100241.44
2023-01-11T22:18:42.987Z,100250.22
2023-01-11T22:21:12.267Z,100261.41
2023-01-11T22:23:40.374Z,100261.28
2023-01-11T22:26:09.933Z,100249.16
2023-01-11T22:28:58.043Z,100263.00
2023-01-11T22:31:27.310Z,100271.19
2023-01-11T22:33:55.336Z,100271.09
2023-01-11T22:36:23.473Z,100275.97
2023-01-11T22:38:51.268Z,100265.28
2023-01-11T22:41:20.680Z,100279.19
2023-01-11T22:43:49.491Z,100274.81
2023-01-11T22:46:19.190Z,100282.88
2023-01-11T22:48:48.479Z,100287.38
2023-01-11T22:51:17.681Z,100292.84
2023-01-11T22:53:46.653Z,100294.47
2023-01-11T22:56:18.164Z,100291.31
2023-01-11T22:58:46.973Z,100279.47
2023-01-11T23:01:15.968Z,100278.31
2023-01-11T23:03:45.165Z,100282.50
2023-01-11T23:06:13.463Z,100285.16
2023-01-11T23:08:42.589Z,100282.63
2023-01-11T23:11:11.603Z,100278.06
2023-01-11T23:13:52.826Z,100286.28
2023-01-11T23:16:21.971Z,100292.91
2023-01-11T23:18:49.426Z,100288.25
2023-01-11T23:21:17.791Z,100270.72
2023-01-11T23:23:45.300Z,100277.59
2023-01-11T23:26:13.315Z,100277.13
2023-01-11T23:28:40.776Z,100276.22
2023-01-11T23:31:14.696Z,100283.72
2023-01-11T23:33:43.429Z,100283.13
2023-01-11T23:36:10.877Z,100286.75
2023-01-11T23:38:38.516Z,100281.75
2023-01-11T23:41:25.015Z,100286.13
2023-01-11T23:43:52.587Z,100295.06
2023-01-11T23:46:37.571Z,100295.50
2023-01-11T23:49:07.731Z,100286.22
2023-01-11T23:51:35.797Z,100290.31
2023-01-11T23:54:03.527Z,100283.44
2023-01-11T23:56:31.959Z,100296.94
2023-01-11T23:58:59.464Z,100289.47
